createdAt,value
2019-06-15T00:00:09.292Z,0.00
2019-06-15T00:01:07.494Z,0.00
2019-06-15T00:02:07.697Z,0.00
2019-06-15T00:03:07.957Z,0.00
2019-06-15T00:04:08.138Z,0.00
2019-06-15T00:05:08.330Z,0.00
2019-06-15T00:06:08.552Z,0.00
2019-06-15T00:07:08.773Z,0.00
2019-06-15T00:08:08.988Z,0.00
2019-06-15T00:09:09.211Z,0.00
2019-06-15T00:10:09.416Z,0.00
2019-06-15T00:11:09.627Z,0.00
2019-06-15T00:12:09.855Z,0.00
2019-06-15T00:13:10.058Z,0.00
2019-06-15T00:14:10.271Z,0.00
2019-06-15T00:15:12.291Z,0.00
2019-06-15T00:16:10.634Z,0.00
2019-06-15T00:17:10.861Z,0.00
2019-06-15T00:18:11.061Z,0.00
2019-06-15T00:19:11.270Z,0.00
2019-06-15T00:20:11.493Z,0.00
2019-06-15T00:21:11.699Z,0.00
2019-06-15T00:22:13.799Z,0.00
2019-06-15T00:23:12.118Z,0.00
2019-06-15T00:24:14.297Z,0.00
2019-06-15T00:25:12.526Z,0.00
2019-06-15T00:26:12.623Z,0.00
2019-06-15T00:27:12.836Z,0.00
2019-06-15T00:28:13.048Z,0.00
2019-06-15T00:29:14.823Z,0.00
2019-06-15T00:30:13.425Z,0.00
2019-06-15T00:31:15.296Z,0.00
2019-06-15T00:32:13.745Z,0.00
2019-06-15T00:33:15.794Z,0.00
2019-06-15T00:34:14.130Z,0.00
2019-06-15T00:35:16.314Z,0.00
2019-06-15T00:36:14.539Z,0.00
2019-06-15T00:37:14.744Z,0.00
2019-06-15T00:38:16.795Z,0.00
2019-06-15T00:39:15.148Z,0.00
2019-06-15T00:40:15.357Z,0.00
2019-06-15T00:41:15.541Z,0.00
2019-06-15T00:42:15.774Z,0.00
2019-06-15T00:43:17.795Z,0.00
2019-06-15T00:44:16.135Z,0.00
2019-06-15T00:45:20.298Z,0.00
2019-06-15T00:46:18.300Z,0.00
2019-06-15T00:47:18.297Z,0.00
2019-06-15T00:48:16.760Z,0.00
2019-06-15T00:49:18.805Z,0.00
2019-06-15T00:50:17.132Z,0.00
2019-06-15T00:51:17.361Z,0.00
2019-06-15T00:52:17.568Z,0.00
2019-06-15T00:53:17.777Z,0.00
2019-06-15T00:54:19.801Z,0.00
2019-06-15T00:55:18.140Z,0.00
2019-06-15T00:56:18.340Z,0.00
2019-06-15T00:57:20.295Z,0.00
2019-06-15T00:58:18.774Z,0.00
2019-06-15T00:59:18.971Z,0.00
2019-06-15T01:00:20.798Z,0.00
2019-06-15T01:01:19.392Z,0.00
2019-06-15T01:02:19.617Z,0.00
2019-06-15T01:03:19.843Z,0.00
2019-06-15T01:04:20.052Z,0.00
2019-06-15T01:05:20.255Z,0.00
2019-06-15T01:06:20.482Z,0.00
2019-06-15T01:07:20.710Z,0.00
2019-06-15T01:08:22.811Z,0.00
2019-06-15T01:09:22.805Z,0.00
2019-06-15T01:10:21.259Z,0.00
2019-06-15T01:11:21.472Z,0.00
2019-06-15T01:12:21.677Z,0.00
2019-06-15T01:13:23.794Z,0.00
2019-06-15T01:14:22.025Z,0.00
2019-06-15T01:15:22.240Z,0.00
2019-06-15T01:16:22.479Z,0.00
2019-06-15T01:17:22.591Z,0.00
2019-06-15T01:18:22.804Z,0.00
2019-06-15T01:19:23.014Z,0.00
2019-06-15T01:20:26.796Z,0.00
2019-06-15T01:21:25.302Z,0.00
2019-06-15T01:22:23.564Z,0.00
2019-06-15T01:23:23.747Z,0.00
2019-06-15T01:24:23.960Z,0.00
2019-06-15T01:25:24.170Z,0.00
2019-06-15T01:26:24.377Z,0.00
2019-06-15T01:27:24.591Z,0.00
2019-06-15T01:28:24.806Z,0.00
2019-06-15T01:29:25.020Z,0.00
2019-06-15T01:30:25.263Z,0.00
2019-06-15T01:31:25.446Z,0.00
2019-06-15T01:32:25.655Z,0.00
2019-06-15T01:33:29.825Z,0.00
2019-06-15T01:34:26.079Z,0.00
2019-06-15T01:35:26.252Z,0.00
2019-06-15T01:36:26.457Z,0.00
2019-06-15T01:37:26.660Z,0.00
2019-06-15T01:38:26.870Z,0.00
2019-06-15T01:39:27.095Z,0.00
2019-06-15T01:40:28.811Z,0.00
2019-06-15T01:41:29.301Z,0.00
2019-06-15T01:42:27.626Z,0.00
2019-06-15T01:43:27.841Z,0.00
2019-06-15T01:44:28.054Z,0.00
2019-06-15T01:45:29.261Z,0.00
2019-06-15T01:46:28.482Z,0.00
2019-06-15T01:47:28.678Z,0.00
2019-06-15T01:48:28.898Z,0.00
2019-06-15T01:49:29.099Z,0.00
2019-06-15T01:50:29.330Z,0.00
2019-06-15T01:51:29.544Z,0.00
2019-06-15T01:52:29.774Z,0.00
2019-06-15T01:53:30.012Z,0.00
2019-06-15T01:54:30.207Z,0.00
2019-06-15T01:55:32.303Z,0.00
2019-06-15T01:56:30.661Z,0.00
2019-06-15T01:57:30.765Z,0.00
2019-06-15T01:58:30.969Z,0.00
2019-06-15T01:59:31.186Z,0.00
2019-06-15T02:00:31.402Z,0.00
2019-06-15T02:01:31.610Z,0.00
2019-06-15T02:02:31.817Z,0.00
2019-06-15T02:03:32.022Z,0.00
2019-06-15T02:04:39.813Z,0.00
2019-06-15T02:05:32.413Z,0.00
2019-06-15T02:06:32.627Z,0.00
2019-06-15T02:07:32.851Z,0.00
2019-06-15T02:08:34.808Z,0.00
2019-06-15T02:09:34.804Z,0.00
2019-06-15T02:10:33.413Z,0.00
2019-06-15T02:11:33.607Z,0.00
2019-06-15T02:12:35.311Z,0.00
2019-06-15T02:13:34.016Z,0.00
2019-06-15T02:14:34.232Z,0.00
2019-06-15T02:15:36.307Z,0.00
2019-06-15T02:16:36.136Z,0.00
2019-06-15T02:17:34.830Z,0.00
2019-06-15T02:18:35.037Z,0.00
2019-06-15T02:19:35.247Z,0.00
2019-06-15T02:20:35.459Z,0.00
2019-06-15T02:21:35.727Z,0.00
2019-06-15T02:22:35.894Z,0.00
2019-06-15T02:23:36.113Z,0.00
2019-06-15T02:24:37.303Z,0.00
2019-06-15T02:25:36.829Z,0.00
2019-06-15T02:26:36.718Z,0.00
2019-06-15T02:27:38.804Z,0.00
2019-06-15T02:28:38.137Z,0.00
2019-06-15T02:29:37.357Z,0.00
2019-06-15T02:30:37.596Z,0.00
2019-06-15T02:31:37.790Z,0.00
2019-06-15T02:32:38.040Z,0.00
2019-06-15T02:33:38.241Z,0.00
2019-06-15T02:34:38.494Z,4.00
2019-06-15T02:35:38.666Z,4.00
2019-06-15T02:36:38.877Z,4.00
2019-06-15T02:37:40.801Z,4.00
2019-06-15T02:38:40.812Z,0.00
2019-06-15T02:39:39.398Z,4.00
2019-06-15T02:40:41.305Z,4.00
2019-06-15T02:41:41.310Z,4.00
2019-06-15T02:42:39.894Z,8.00
2019-06-15T02:43:40.098Z,4.00
2019-06-15T02:44:41.318Z,8.00
2019-06-15T02:45:40.570Z,8.00
2019-06-15T02:46:40.751Z,8.00
2019-06-15T02:47:44.805Z,8.00
2019-06-15T02:48:42.813Z,12.00
2019-06-15T02:49:41.265Z,12.00
2019-06-15T02:50:41.505Z,16.00
2019-06-15T02:51:41.734Z,16.00
2019-06-15T02:52:41.934Z,20.00
2019-06-15T02:53:45.327Z,20.00
2019-06-15T02:54:42.362Z,24.00
2019-06-15T02:55:50.722Z,28.00
2019-06-15T02:56:42.769Z,32.00
2019-06-15T02:57:42.968Z,36.00
2019-06-15T02:58:44.810Z,40.00
2019-06-15T02:59:43.399Z,44.00
2019-06-15T03:00:43.634Z,48.00
2019-06-15T03:01:43.737Z,56.00
2019-06-15T03:02:43.951Z,60.00
2019-06-15T03:03:44.177Z,68.00
2019-06-15T03:04:46.310Z,76.00
2019-06-15T03:05:46.313Z,80.00
2019-06-15T03:06:44.663Z,88.00
2019-06-15T03:07:44.873Z,92.00
2019-06-15T03:08:45.081Z,100.00
2019-06-15T03:09:45.291Z,112.00
2019-06-15T03:10:45.494Z,120.00
2019-06-15T03:11:47.305Z,128.00
2019-06-15T03:12:45.885Z,140.00
2019-06-15T03:13:46.094Z,148.00
2019-06-15T03:14:46.300Z,164.00
2019-06-15T03:15:48.308Z,172.00
2019-06-15T03:16:46.644Z,188.00
2019-06-15T03:17:48.814Z,200.00
2019-06-15T03:18:47.012Z,212.00
2019-06-15T03:19:48.826Z,228.00
2019-06-15T03:20:47.435Z,236.00
2019-06-15T03:21:49.309Z,252.00
2019-06-15T03:22:47.817Z,260.00
2019-06-15T03:23:51.817Z,272.00
2019-06-15T03:24:48.141Z,284.00
2019-06-15T03:26:02.196Z,296.00
2019-06-15T03:26:48.529Z,316.00
2019-06-15T03:27:48.752Z,328.00
2019-06-15T03:28:50.844Z,340.00
2019-06-15T03:29:49.140Z,356.00
2019-06-15T03:30:49.347Z,364.00
2019-06-15T03:31:49.571Z,372.00
2019-06-15T03:32:49.775Z,384.00
2019-06-15T03:33:49.977Z,388.00
2019-06-15T03:34:50.220Z,400.00
2019-06-15T03:35:50.413Z,412.00
2019-06-15T03:36:50.639Z,428.00
2019-06-15T03:37:50.849Z,440.00
2019-06-15T03:38:51.067Z,460.00
2019-06-15T03:39:52.806Z,472.00
2019-06-15T03:40:59.312Z,496.00
2019-06-15T03:41:51.634Z,516.00
2019-06-15T03:42:52.845Z,540.00
2019-06-15T03:43:52.056Z,564.00
2019-06-15T03:44:52.319Z,596.00
2019-06-15T03:45:52.475Z,628.00
2019-06-15T03:46:54.330Z,668.00
2019-06-15T03:47:54.311Z,708.00
2019-06-15T03:48:53.019Z,760.00
2019-06-15T03:49:53.240Z,812.00
2019-06-15T03:50:53.459Z,872.00
2019-06-15T03:51:53.664Z,928.00
2019-06-15T03:52:55.813Z,992.00
2019-06-15T03:53:54.026Z,1052.00
2019-06-15T03:54:55.821Z,1108.00
2019-06-15T03:55:54.439Z,1156.00
2019-06-15T03:56:54.662Z,1204.00
2019-06-15T03:57:54.837Z,1240.00
2019-06-15T03:58:55.051Z,1272.00
2019-06-15T03:59:56.811Z,1304.00
2019-06-15T04:00:55.402Z,1328.00
2019-06-15T04:01:55.617Z,1348.00
2019-06-15T04:02:57.869Z,1372.00
2019-06-15T04:03:56.025Z,1400.00
2019-06-15T04:04:56.239Z,1428.00
2019-06-15T04:05:56.449Z,1460.00
2019-06-15T04:06:56.646Z,1496.00
2019-06-15T04:07:58.812Z,1540.00
2019-06-15T04:08:57.026Z,1580.00
2019-06-15T04:09:57.220Z,1628.00
2019-06-15T04:10:57.429Z,1688.00
2019-06-15T04:11:59.321Z,1756.00
2019-06-15T04:12:59.324Z,1836.00
2019-06-15T04:13:57.914Z,1928.00
2019-06-15T04:14:59.811Z,2016.00
2019-06-15T04:15:58.272Z,2108.00
2019-06-15T04:16:58.471Z,2188.00
2019-06-15T04:18:02.311Z,2256.00
2019-06-15T04:18:58.885Z,2340.00
2019-06-15T04:19:59.094Z,2440.00
2019-06-15T04:20:59.307Z,2560.00
2019-06-15T04:21:59.560Z,2668.00
2019-06-15T04:23:02.332Z,2732.00
2019-06-15T04:24:01.316Z,2748.00
2019-06-15T04:25:00.021Z,2792.00
2019-06-15T04:26:00.229Z,2848.00
2019-06-15T04:27:00.458Z,2936.00
2019-06-15T04:28:02.324Z,3012.00
2019-06-15T04:29:00.794Z,3112.00
2019-06-15T04:30:08.825Z,3220.00
2019-06-15T04:31:01.141Z,3300.00
2019-06-15T04:32:01.353Z,3356.00
2019-06-15T04:33:01.572Z,3436.00
2019-06-15T04:34:01.775Z,3524.00
2019-06-15T04:35:02.013Z,3656.00
2019-06-15T04:36:02.108Z,3792.00
2019-06-15T04:37:02.360Z,3872.00
2019-06-15T04:38:02.567Z,3912.00
2019-06-15T04:39:02.781Z,3924.00
2019-06-15T04:40:09.823Z,3976.00
2019-06-15T04:41:03.145Z,4068.00
2019-06-15T04:42:05.317Z,4196.00
2019-06-15T04:43:03.535Z,4308.00
2019-06-15T04:44:05.321Z,4468.00
2019-06-15T04:45:07.813Z,4672.00
2019-06-15T04:46:04.028Z,4856.00
2019-06-15T04:47:05.825Z,5036.00
2019-06-15T04:48:04.427Z,5220.00
2019-06-15T04:49:04.617Z,5388.00
2019-06-15T04:50:04.827Z,5588.00
2019-06-15T04:51:05.041Z,5796.00
2019-06-15T04:52:05.255Z,6004.00
2019-06-15T04:53:05.458Z,6192.00
2019-06-15T04:54:05.677Z,6384.00
2019-06-15T04:55:05.885Z,6548.00
2019-06-15T04:56:07.826Z,6704.00
2019-06-15T04:57:06.288Z,6828.00
2019-06-15T04:58:06.519Z,6876.00
2019-06-15T04:59:06.734Z,6804.00
2019-06-15T05:00:06.959Z,6676.00
2019-06-15T05:01:07.157Z,6528.00
2019-06-15T05:02:07.368Z,6352.00
2019-06-15T05:03:07.572Z,6236.00
2019-06-15T05:04:09.321Z,6016.00
2019-06-15T05:05:07.930Z,6096.00
2019-06-15T05:06:11.824Z,6356.00
2019-06-15T05:07:09.817Z,6892.00
2019-06-15T05:08:11.817Z,6768.00
2019-06-15T05:09:10.323Z,6836.00
2019-06-15T05:10:08.669Z,7208.00
2019-06-15T05:11:10.879Z,7780.00
2019-06-15T05:12:10.828Z,8436.00
2019-06-15T05:13:10.861Z,8708.00
2019-06-15T05:14:15.337Z,8760.00
2019-06-15T05:15:10.680Z,8824.00
2019-06-15T05:16:11.822Z,8924.00
2019-06-15T05:17:10.039Z,9104.00
2019-06-15T05:18:10.238Z,9304.00
2019-06-15T05:19:10.454Z,9460.00
2019-06-15T05:20:12.412Z,9648.00
2019-06-15T05:21:10.829Z,9784.00
2019-06-15T05:22:14.837Z,9976.00
2019-06-15T05:23:11.183Z,10140.00
2019-06-15T05:24:11.417Z,10340.00
2019-06-15T05:25:13.322Z,10428.00
2019-06-15T05:26:13.325Z,10568.00
2019-06-15T05:27:12.790Z,11112.00
2019-06-15T05:28:12.013Z,11876.00
2019-06-15T05:29:13.831Z,12472.00
2019-06-15T05:30:12.434Z,13216.00
2019-06-15T05:31:14.321Z,14200.00
2019-06-15T05:32:14.325Z,15368.00
2019-06-15T05:33:13.917Z,16992.00
2019-06-15T05:34:13.134Z,17088.00
2019-06-15T05:35:23.563Z,17056.00
2019-06-15T05:36:14.578Z,17632.00
2019-06-15T05:37:17.339Z,18208.00
2019-06-15T05:38:13.955Z,18560.00
2019-06-15T05:39:14.161Z,18592.00
2019-06-15T05:40:17.344Z,17888.00
2019-06-15T05:41:18.367Z,17024.00
2019-06-15T05:42:14.788Z,16416.00
2019-06-15T05:43:18.843Z,15724.00
2019-06-15T05:44:15.178Z,15644.00
2019-06-15T05:45:31.319Z,15692.00
2019-06-15T05:46:19.321Z,15716.00
2019-06-15T05:47:21.319Z,15380.00
2019-06-15T05:48:15.768Z,15076.00
2019-06-15T05:49:16.025Z,14288.00
2019-06-15T05:50:16.139Z,13856.00
2019-06-15T05:51:16.344Z,13460.00
2019-06-15T05:52:18.325Z,11604.00
2019-06-15T05:53:16.783Z,12600.00
2019-06-15T05:54:16.990Z,11996.00
2019-06-15T05:55:17.239Z,11704.00
2019-06-15T05:56:17.370Z,13632.00
2019-06-15T05:57:21.875Z,14904.00
2019-06-15T05:58:23.379Z,15108.00
2019-06-15T05:59:19.868Z,15284.00
2019-06-15T06:00:18.034Z,15464.00
2019-06-15T06:01:19.867Z,15668.00
2019-06-15T06:02:24.734Z,15884.00
2019-06-15T06:03:18.653Z,16176.00
2019-06-15T06:04:18.865Z,16608.00
2019-06-15T06:05:19.083Z,16896.00
2019-06-15T06:06:22.825Z,17088.00
2019-06-15T06:07:26.348Z,17120.00
2019-06-15T06:08:22.289Z,17056.00
2019-06-15T06:09:23.882Z,17056.00
2019-06-15T06:10:22.781Z,17184.00
2019-06-15T06:11:21.821Z,17248.00
2019-06-15T06:12:20.405Z,17408.00
2019-06-15T06:13:22.362Z,17568.00
2019-06-15T06:14:20.845Z,17728.00
2019-06-15T06:15:26.833Z,17824.00
2019-06-15T06:16:24.833Z,17920.00
2019-06-15T06:17:23.932Z,18208.00
2019-06-15T06:18:44.361Z,18496.00
2019-06-15T06:19:24.277Z,18688.00
2019-06-15T06:20:44.824Z,18944.00
2019-06-15T06:21:23.824Z,19200.00
2019-06-15T06:22:24.285Z,19264.00
2019-06-15T06:23:22.647Z,19264.00
2019-06-15T06:24:24.824Z,19200.00
2019-06-15T06:25:24.030Z,19232.00
2019-06-15T06:26:38.849Z,19392.00
2019-06-15T06:27:36.569Z,19552.00
2019-06-15T06:28:26.389Z,19744.00
2019-06-15T06:29:36.310Z,19968.00
2019-06-15T06:30:23.906Z,20288.00
2019-06-15T06:31:32.783Z,20416.00
2019-06-15T06:32:24.250Z,20512.00
2019-06-15T06:33:24.658Z,20480.00
2019-06-15T06:34:28.324Z,20448.00
2019-06-15T06:35:27.286Z,20672.00
2019-06-15T06:36:25.789Z,21216.00
2019-06-15T06:37:26.871Z,22464.00
2019-06-15T06:38:25.390Z,25856.00
2019-06-15T06:39:27.330Z,33440.00
2019-06-15T06:40:25.782Z,40320.00
2019-06-15T06:41:28.799Z,43328.00
2019-06-15T06:42:29.828Z,44256.00
2019-06-15T06:43:48.829Z,44768.00
2019-06-15T06:44:28.282Z,44640.00
2019-06-15T06:45:28.364Z,45184.00
2019-06-15T06:46:26.948Z,46432.00
2019-06-15T06:47:28.859Z,47136.00
2019-06-15T06:48:28.278Z,47840.00
2019-06-15T06:49:28.780Z,47392.00
2019-06-15T06:50:29.334Z,46304.00
2019-06-15T06:51:29.393Z,46752.00
2019-06-15T06:52:52.861Z,47680.00
2019-06-15T06:53:29.855Z,48608.00
2019-06-15T06:54:30.281Z,49664.00
2019-06-15T06:55:30.328Z,50944.00
2019-06-15T06:56:31.315Z,50720.00
2019-06-15T06:57:32.338Z,50208.00
2019-06-15T06:58:29.784Z,49056.00
2019-06-15T06:59:30.023Z,48000.00
2019-06-15T07:00:29.251Z,47008.00
2019-06-15T07:01:31.335Z,47104.00
2019-06-15T07:02:31.337Z,49120.00
2019-06-15T07:03:32.306Z,50176.00
2019-06-15T07:04:32.308Z,49696.00
2019-06-15T07:05:31.841Z,48032.00
2019-06-15T07:06:31.838Z,47424.00
2019-06-15T07:07:34.329Z,48768.00
2019-06-15T07:08:48.312Z,50400.00
2019-06-15T07:09:31.927Z,51840.00
2019-06-15T07:10:31.022Z,52704.00
2019-06-15T07:11:32.284Z,52448.00
2019-06-15T07:12:31.390Z,53216.00
2019-06-15T07:13:35.339Z,54016.00
2019-06-15T07:14:33.034Z,53920.00
2019-06-15T07:15:36.812Z,54080.00
2019-06-15T07:16:32.807Z,56576.00
2019-06-15T07:17:32.298Z,58784.00
2019-06-15T07:18:33.289Z,59392.00
2019-06-15T07:19:36.331Z,58240.00
2019-06-15T07:20:36.282Z,55296.00
2019-06-15T07:21:34.871Z,52256.00
2019-06-15T07:22:33.231Z,50304.00
2019-06-15T07:23:34.873Z,49376.00
2019-06-15T07:24:33.484Z,48800.00
2019-06-15T07:25:33.702Z,47296.00
2019-06-15T07:26:34.792Z,45920.00
2019-06-15T07:27:35.831Z,45024.00
2019-06-15T07:28:38.453Z,46176.00
2019-06-15T07:29:36.330Z,47936.00
2019-06-15T07:30:36.331Z,48928.00
2019-06-15T07:31:34.915Z,48256.00
2019-06-15T07:32:35.128Z,50432.00
2019-06-15T07:33:35.354Z,53568.00
2019-06-15T07:34:35.620Z,57888.00
2019-06-15T07:35:36.742Z,61312.00
2019-06-15T07:36:37.866Z,63712.00
2019-06-15T07:37:36.095Z,65504.00
2019-06-15T07:38:37.842Z,67392.00
2019-06-15T07:39:36.428Z,69312.00
2019-06-15T07:40:40.371Z,70176.00
2019-06-15T07:41:42.858Z,71168.00
2019-06-15T07:42:39.380Z,70528.00
2019-06-15T07:43:37.313Z,69152.00
2019-06-15T07:44:38.571Z,69472.00
2019-06-15T07:45:38.679Z,72256.00
2019-06-15T07:46:37.921Z,75360.00
2019-06-15T07:47:38.138Z,77088.00
2019-06-15T07:48:40.340Z,77312.00
2019-06-15T07:49:54.804Z,77696.00
2019-06-15T07:50:40.335Z,79104.00
2019-06-15T07:51:39.127Z,79616.00
2019-06-15T07:52:40.850Z,80576.00
2019-06-15T07:53:40.835Z,56224.00
2019-06-15T07:54:41.355Z,61760.00
2019-06-15T07:55:41.712Z,80896.00
2019-06-15T07:56:39.900Z,79520.00
2019-06-15T07:57:41.835Z,79776.00
2019-06-15T07:58:40.372Z,81920.00
2019-06-15T07:59:41.795Z,81408.00
2019-06-15T08:00:42.404Z,84096.00
2019-06-15T08:01:42.887Z,84448.00
2019-06-15T08:02:41.559Z,82816.00
2019-06-15T08:03:43.494Z,80480.00
2019-06-15T08:04:43.371Z,82784.00
2019-06-15T08:05:43.346Z,84224.00
2019-06-15T08:06:41.797Z,86048.00
2019-06-15T08:07:43.803Z,85344.00
2019-06-15T08:08:42.175Z,85856.00
2019-06-15T08:09:46.417Z,86560.00
2019-06-15T08:10:42.577Z,88608.00
2019-06-15T08:11:45.930Z,91200.00
2019-06-15T08:12:44.840Z,89504.00
2019-06-15T08:13:43.220Z,89728.00
2019-06-15T08:14:43.337Z,90560.00
2019-06-15T08:15:45.337Z,91072.00
2019-06-15T08:16:43.816Z,90496.00
2019-06-15T08:17:48.802Z,91264.00
2019-06-15T08:18:44.184Z,91712.00
2019-06-15T08:19:45.853Z,92000.00
2019-06-15T08:21:00.337Z,90720.00
2019-06-15T08:22:00.494Z,90464.00
2019-06-15T08:22:46.377Z,90432.00
2019-06-15T08:23:44.989Z,91072.00
2019-06-15T08:24:45.256Z,92352.00
2019-06-15T08:25:46.482Z,92928.00
2019-06-15T08:26:47.397Z,94016.00
2019-06-15T08:27:47.465Z,93344.00
2019-06-15T08:28:47.020Z,91648.00
2019-06-15T08:29:47.798Z,91904.00
2019-06-15T08:30:47.852Z,92096.00
2019-06-15T08:31:46.436Z,88576.00
2019-06-15T08:32:49.300Z,91168.00
2019-06-15T08:33:46.779Z,94976.00
2019-06-15T08:34:48.824Z,95456.00
2019-06-15T08:35:50.826Z,97248.00
2019-06-15T08:36:51.419Z,96768.00
2019-06-15T08:37:48.588Z,98336.00
2019-06-15T08:38:47.677Z,104288.00
2019-06-15T08:39:51.849Z,105984.00
2019-06-15T08:40:52.008Z,107616.00
2019-06-15T08:41:49.801Z,104960.00
2019-06-15T08:42:49.436Z,103072.00
2019-06-15T08:43:48.541Z,105504.00
2019-06-15T08:44:50.793Z,103104.00
2019-06-15T08:45:50.871Z,102976.00
2019-06-15T08:46:51.105Z,105568.00
2019-06-15T08:47:50.845Z,104512.00
2019-06-15T08:48:50.958Z,103008.00
2019-06-15T08:49:53.353Z,107072.00
2019-06-15T08:50:51.297Z,18880.00
2019-06-15T08:51:50.044Z,103008.00
2019-06-15T08:52:53.843Z,93024.00
2019-06-15T08:53:52.842Z,104384.00
2019-06-15T08:54:52.354Z,98688.00
2019-06-15T08:55:55.326Z,105120.00
2019-06-15T08:56:53.300Z,22496.00
2019-06-15T08:57:57.870Z,100320.00
2019-06-15T08:58:55.759Z,104672.00
2019-06-15T08:59:55.345Z,16328.00
2019-06-15T09:00:59.369Z,19232.00
2019-06-15T09:01:54.067Z,18336.00
2019-06-15T09:02:53.846Z,102720.00
2019-06-15T09:03:54.809Z,16740.00
2019-06-15T09:04:57.304Z,108288.00
2019-06-15T09:05:59.348Z,32608.00
2019-06-15T09:06:53.673Z,16716.00
2019-06-15T09:07:54.195Z,14164.00
2019-06-15T09:08:54.843Z,101952.00
2019-06-15T09:09:56.388Z,58464.00
2019-06-15T09:10:56.302Z,103776.00
2019-06-15T09:11:53.791Z,107104.00
2019-06-15T09:12:56.798Z,106560.00
2019-06-15T09:13:55.841Z,109280.00
2019-06-15T09:14:57.304Z,112416.00
2019-06-15T09:16:10.345Z,33728.00
2019-06-15T09:16:54.811Z,27744.00
2019-06-15T09:18:01.859Z,112512.00
2019-06-15T09:19:02.155Z,50464.00
2019-06-15T09:19:58.844Z,112768.00
2019-06-15T09:20:58.337Z,21216.00
2019-06-15T09:21:55.663Z,122336.00
2019-06-15T09:23:04.643Z,22560.00
2019-06-15T09:24:00.022Z,30592.00
2019-06-15T09:25:00.368Z,24448.00
2019-06-15T09:26:04.762Z,19968.00
2019-06-15T09:26:57.807Z,27680.00
2019-06-15T09:27:59.845Z,17888.00
2019-06-15T09:29:10.682Z,18784.00
2019-06-15T09:30:05.609Z,22624.00
2019-06-15T09:30:57.401Z,18656.00
2019-06-15T09:31:59.348Z,14004.00
2019-06-15T09:33:00.104Z,28960.00
2019-06-15T09:34:10.037Z,36768.00
2019-06-15T09:35:03.860Z,25152.00
2019-06-15T09:36:00.827Z,106848.00
2019-06-15T09:36:58.568Z,117088.00
2019-06-15T09:38:01.392Z,53728.00
2019-06-15T09:39:02.848Z,29632.00
2019-06-15T09:39:59.222Z,23424.00
2019-06-15T09:41:00.809Z,19200.00
2019-06-15T09:42:01.396Z,116032.00
2019-06-15T09:42:59.905Z,119008.00
2019-06-15T09:44:03.300Z,31488.00
2019-06-15T09:45:03.863Z,52992.00
2019-06-15T09:46:02.138Z,86912.00
2019-06-15T09:47:02.360Z,26784.00
2019-06-15T09:48:00.698Z,87904.00
2019-06-15T09:49:00.931Z,22368.00
2019-06-15T09:50:02.804Z,30144.00
2019-06-15T09:51:01.327Z,18336.00
2019-06-15T09:52:01.441Z,18688.00
2019-06-15T09:53:08.349Z,16384.00
2019-06-15T09:54:05.841Z,15488.00
2019-06-15T09:55:02.052Z,12200.00
2019-06-15T09:56:02.325Z,9744.00
2019-06-15T09:57:06.353Z,8164.00
2019-06-15T09:58:04.416Z,6996.00
2019-06-15T09:59:06.348Z,6104.00
2019-06-15T10:00:05.716Z,5848.00
2019-06-15T10:01:04.287Z,6292.00
2019-06-15T10:02:11.374Z,7240.00
2019-06-15T10:03:03.692Z,8804.00
2019-06-15T10:04:03.923Z,10052.00
2019-06-15T10:05:07.803Z,10048.00
2019-06-15T10:06:05.655Z,11108.00
2019-06-15T10:07:04.442Z,86048.00
2019-06-15T10:08:06.360Z,19872.00
2019-06-15T10:09:06.398Z,19168.00
2019-06-15T10:10:06.941Z,103776.00
2019-06-15T10:11:06.851Z,24000.00
2019-06-15T10:12:10.319Z,101088.00
2019-06-15T10:13:13.362Z,17312.00
2019-06-15T10:14:06.733Z,19136.00
2019-06-15T10:15:09.338Z,18688.00
2019-06-15T10:16:06.053Z,15320.00
2019-06-15T10:17:10.337Z,14140.00
2019-06-15T10:18:08.361Z,12556.00
2019-06-15T10:19:06.723Z,17056.00
2019-06-15T10:20:08.850Z,13404.00
2019-06-15T10:21:08.810Z,12824.00
2019-06-15T10:22:07.417Z,22752.00
2019-06-15T10:23:11.364Z,104576.00
2019-06-15T10:24:32.363Z,106848.00
2019-06-15T10:25:08.058Z,107936.00
2019-06-15T10:26:08.207Z,112736.00
2019-06-15T10:27:08.425Z,28768.00
2019-06-15T10:28:12.351Z,108960.00
2019-06-15T10:29:10.353Z,109184.00
2019-06-15T10:30:10.901Z,108672.00
2019-06-15T10:31:09.860Z,106208.00
2019-06-15T10:32:13.352Z,78080.00
2019-06-15T10:33:14.333Z,57760.00
2019-06-15T10:34:10.846Z,105056.00
2019-06-15T10:35:09.993Z,102464.00
2019-06-15T10:36:16.885Z,85856.00
2019-06-15T10:37:11.813Z,19200.00
2019-06-15T10:38:17.387Z,97984.00
2019-06-15T10:39:12.318Z,97760.00
2019-06-15T10:40:12.445Z,99872.00
2019-06-15T10:41:11.122Z,99392.00
2019-06-15T10:42:11.362Z,94240.00
2019-06-15T10:43:13.058Z,92192.00
2019-06-15T10:44:11.667Z,84992.00
2019-06-15T10:45:19.861Z,80608.00
2019-06-15T10:46:13.866Z,70400.00
2019-06-15T10:47:18.875Z,60736.00
2019-06-15T10:48:14.354Z,37536.00
2019-06-15T10:49:14.831Z,36096.00
2019-06-15T10:51:49.086Z,24832.00
2019-06-15T10:52:47.587Z,22272.00
2019-06-15T10:53:47.770Z,21248.00
2019-06-15T10:54:46.255Z,21664.00
2019-06-15T10:55:48.082Z,21824.00
2019-06-15T10:56:48.047Z,20768.00
2019-06-15T10:57:48.634Z,20672.00
2019-06-15T10:58:49.083Z,22464.00
2019-06-15T10:59:56.727Z,27072.00
2019-06-15T11:00:48.932Z,18016.00
2019-06-15T11:01:48.663Z,48896.00
2019-06-15T11:02:52.135Z,66944.00
2019-06-15T11:03:49.622Z,72864.00
2019-06-15T11:04:50.042Z,68960.00
2019-06-15T11:05:50.198Z,33728.00
2019-06-15T11:07:11.048Z,19104.00
2019-06-15T11:07:50.589Z,17184.00
2019-06-15T11:08:50.653Z,16544.00
2019-06-15T11:09:50.045Z,16548.00
2019-06-15T11:10:49.162Z,15976.00
2019-06-15T11:11:50.082Z,14488.00
2019-06-15T11:12:57.094Z,13348.00
2019-06-15T11:13:57.611Z,12288.00
2019-06-15T11:14:51.621Z,11576.00
2019-06-15T11:15:54.542Z,11780.00
2019-06-15T11:16:50.428Z,12412.00
2019-06-15T11:17:52.100Z,13952.00
2019-06-15T11:18:52.592Z,14844.00
2019-06-15T11:19:52.586Z,14660.00
2019-06-15T11:20:53.042Z,12656.00
2019-06-15T11:21:51.283Z,11224.00
2019-06-15T11:22:53.086Z,11988.00
2019-06-15T11:23:53.564Z,16128.00
2019-06-15T11:24:55.617Z,18304.00
2019-06-15T11:26:13.098Z,18624.00
2019-06-15T11:26:54.851Z,19584.00
2019-06-15T11:27:52.557Z,19264.00
2019-06-15T11:28:54.601Z,19328.00
2019-06-15T11:30:12.344Z,17248.00
2019-06-15T11:30:55.610Z,15932.00
2019-06-15T11:31:57.085Z,15272.00
2019-06-15T11:32:56.539Z,15196.00
2019-06-15T11:33:57.087Z,15692.00
2019-06-15T11:34:56.544Z,15908.00
2019-06-15T11:35:54.041Z,17408.00
2019-06-15T11:36:54.168Z,17568.00
2019-06-15T11:37:55.065Z,17376.00
2019-06-15T11:38:58.538Z,17152.00
2019-06-15T11:39:56.588Z,17344.00
2019-06-15T11:40:54.923Z,16348.00
2019-06-15T11:41:55.189Z,15012.00
2019-06-15T11:42:57.090Z,14960.00
2019-06-15T11:43:57.114Z,15656.00
2019-06-15T11:44:55.752Z,14472.00
2019-06-15T11:45:55.863Z,12096.00
2019-06-15T11:46:59.602Z,12792.00
2019-06-15T11:48:03.094Z,12596.00
2019-06-15T11:48:58.093Z,12696.00
2019-06-15T11:49:56.749Z,12844.00
2019-06-15T11:50:58.906Z,12468.00
2019-06-15T11:51:58.595Z,12452.00
2019-06-15T11:52:59.048Z,12608.00
2019-06-15T11:53:57.437Z,13184.00
2019-06-15T11:54:59.094Z,13952.00
2019-06-15T11:56:01.636Z,14692.00
2019-06-15T11:56:59.600Z,15180.00
2019-06-15T11:58:00.088Z,15104.00
2019-06-15T11:59:01.085Z,17216.00
2019-06-15T12:00:02.130Z,16572.00
2019-06-15T12:01:14.598Z,16256.00
2019-06-15T12:02:02.637Z,13628.00
2019-06-15T12:02:59.760Z,12664.00
2019-06-15T12:04:06.094Z,13092.00
2019-06-15T12:04:59.432Z,12772.00
2019-06-15T12:06:03.045Z,12992.00
2019-06-15T12:07:01.591Z,14300.00
2019-06-15T12:08:00.563Z,16512.00
2019-06-15T12:09:04.097Z,14980.00
2019-06-15T12:10:02.103Z,13740.00
2019-06-15T12:11:00.561Z,14620.00
2019-06-15T12:12:01.780Z,15016.00
2019-06-15T12:13:04.589Z,15108.00
2019-06-15T12:14:03.092Z,15424.00